createdAt,value
2022-12-26T00:00:53.780Z,3.20
2022-12-26T00:03:23.470Z,3.77
2022-12-26T00:05:51.420Z,3.83
2022-12-26T00:08:19.370Z,3.90
2022-12-26T00:10:47.375Z,3.97
2022-12-26T00:13:38.169Z,4.00
2022-12-26T00:16:09.476Z,4.37
2022-12-26T00:18:39.212Z,4.40
2022-12-26T00:21:07.892Z,4.10
2022-12-26T00:23:36.230Z,3.87
2022-12-26T00:26:05.229Z,4.10
2022-12-26T00:28:33.385Z,3.30
2022-12-26T00:35:49.100Z,2.93
2022-12-26T00:38:18.400Z,2.87
2022-12-26T00:40:46.272Z,3.50
2022-12-26T00:43:14.196Z,2.70
2022-12-26T00:45:46.015Z,3.20
2022-12-26T00:48:13.936Z,2.80
2022-12-26T00:50:41.797Z,3.30
2022-12-26T00:53:09.802Z,3.17
2022-12-26T00:55:39.104Z,3.53
2022-12-26T00:58:07.128Z,3.97
2022-12-26T01:00:35.668Z,2.60
2022-12-26T01:03:03.969Z,2.80
2022-12-26T01:05:31.980Z,3.10
2022-12-26T01:08:23.074Z,3.00
2022-12-26T01:10:49.339Z,2.60
2022-12-26T01:13:17.465Z,2.80
2022-12-26T01:15:49.970Z,2.37
2022-12-26T01:18:18.023Z,2.83
2022-12-26T01:20:45.942Z,2.70
2022-12-26T01:23:13.887Z,2.77
2022-12-26T01:26:17.292Z,2.90
2022-12-26T01:28:31.406Z,2.43
2022-12-26T01:31:02.962Z,2.50
2022-12-26T01:33:31.263Z,2.93
2022-12-26T01:35:59.514Z,3.50
2022-12-26T01:38:27.812Z,3.07
2022-12-26T01:41:09.847Z,4.30
2022-12-26T01:43:55.308Z,3.40
2022-12-26T01:46:30.603Z,2.60
2022-12-26T01:49:02.015Z,2.47
2022-12-26T01:51:34.624Z,3.13
2022-12-26T01:54:39.609Z,3.13
2022-12-26T01:56:54.467Z,3.20
2022-12-26T01:59:27.775Z,2.70
2022-12-26T02:01:56.543Z,2.80
2022-12-26T02:04:47.232Z,2.20
2022-12-26T02:07:15.343Z,2.30
2022-12-26T02:09:43.918Z,2.63
2022-12-26T02:12:35.807Z,2.37
2022-12-26T02:15:09.849Z,2.60
2022-12-26T02:17:38.451Z,2.07
2022-12-26T02:20:17.259Z,2.20
2022-12-26T02:23:21.614Z,2.27
2022-12-26T02:26:46.884Z,2.67
2022-12-26T02:29:51.947Z,2.63
2022-12-26T02:32:28.579Z,2.37
2022-12-26T02:35:06.207Z,2.60
2022-12-26T02:37:50.122Z,2.97
2022-12-26T02:40:37.909Z,2.43
2022-12-26T02:43:17.079Z,2.70
2022-12-26T02:46:09.663Z,2.50
2022-12-26T02:48:47.238Z,2.87
2022-12-26T02:51:42.859Z,2.67
2022-12-26T02:54:37.085Z,3.30
2022-12-26T02:57:24.816Z,2.43
2022-12-26T03:00:17.531Z,2.90
2022-12-26T03:03:09.236Z,2.90
2022-12-26T03:06:00.869Z,3.03
2022-12-26T03:08:50.577Z,3.40
2022-12-26T03:11:35.968Z,3.00
2022-12-26T03:14:12.106Z,2.90
2022-12-26T03:16:58.403Z,3.23
2022-12-26T03:19:30.073Z,2.80
2022-12-26T03:22:01.976Z,2.67
2022-12-26T03:24:50.965Z,3.30
2022-12-26T03:27:18.021Z,2.60
2022-12-26T03:29:59.842Z,2.47
2022-12-26T03:32:27.822Z,2.70
2022-12-26T03:34:55.747Z,2.33
2022-12-26T03:37:49.176Z,2.97
2022-12-26T03:41:10.338Z,3.27
2022-12-26T03:44:14.624Z,2.97
2022-12-26T03:47:14.119Z,2.93
2022-12-26T03:50:04.005Z,2.73
2022-12-26T03:52:58.746Z,2.73
2022-12-26T03:55:48.955Z,3.00
2022-12-26T03:58:39.092Z,3.20
2022-12-26T04:01:29.199Z,2.90
2022-12-26T04:04:16.916Z,2.60
2022-12-26T04:07:09.432Z,2.67
2022-12-26T04:10:01.725Z,2.17
2022-12-26T04:12:52.291Z,3.07
2022-12-26T04:15:41.360Z,2.47
2022-12-26T04:18:31.431Z,2.90
2022-12-26T04:21:33.396Z,2.50
2022-12-26T04:24:24.871Z,2.40
2022-12-26T04:27:16.928Z,2.80
2022-12-26T04:30:03.235Z,2.70
2022-12-26T04:32:54.275Z,2.37
2022-12-26T04:35:49.831Z,2.40
2022-12-26T04:38:40.124Z,2.17
2022-12-26T04:41:27.654Z,2.40
2022-12-26T04:44:09.248Z,2.03
2022-12-26T04:46:39.925Z,2.63
2022-12-26T04:49:28.671Z,2.50
2022-12-26T04:51:58.505Z,1.93
2022-12-26T04:54:26.597Z,2.20
2022-12-26T04:56:54.800Z,2.27
2022-12-26T04:59:24.728Z,2.53
2022-12-26T05:02:10.055Z,2.23
2022-12-26T05:04:55.704Z,2.30
2022-12-26T05:07:44.145Z,1.93
2022-12-26T05:10:19.415Z,1.93
2022-12-26T05:12:47.732Z,2.10
2022-12-26T05:15:17.527Z,2.37
2022-12-26T05:18:03.091Z,2.17
2022-12-26T05:20:48.815Z,2.50
2022-12-26T05:23:39.388Z,1.60
2022-12-26T05:26:39.759Z,2.73
2022-12-26T05:29:08.310Z,2.10
2022-12-26T05:31:37.702Z,2.40
2022-12-26T05:34:08.016Z,2.10
2022-12-26T05:36:40.112Z,2.30
2022-12-26T05:39:09.514Z,1.80
2022-12-26T05:41:38.023Z,2.10
2022-12-26T05:44:06.857Z,2.00
2022-12-26T05:46:35.217Z,2.30
2022-12-26T05:49:05.167Z,2.40
2022-12-26T05:51:33.234Z,1.70
2022-12-26T05:54:01.250Z,1.90
2022-12-26T05:56:29.407Z,2.10
2022-12-26T05:58:58.917Z,1.87
2022-12-26T06:01:28.953Z,2.27
2022-12-26T06:03:59.302Z,1.87
2022-12-26T06:06:29.070Z,2.10
2022-12-26T06:08:58.477Z,2.20
2022-12-26T06:11:27.121Z,1.80
2022-12-26T06:13:55.661Z,2.00
2022-12-26T06:16:23.707Z,1.90
2022-12-26T06:18:51.654Z,2.00
2022-12-26T06:21:21.341Z,1.73
2022-12-26T06:23:51.310Z,2.27
2022-12-26T06:26:19.382Z,2.03
2022-12-26T06:28:47.769Z,2.00
2022-12-26T06:31:18.220Z,2.30
2022-12-26T06:33:46.290Z,2.40
2022-12-26T06:36:16.349Z,2.30
2022-12-26T06:38:44.653Z,2.37
2022-12-26T06:41:15.832Z,2.53
2022-12-26T06:43:44.163Z,1.93
2022-12-26T06:46:15.851Z,2.40
2022-12-26T06:48:44.067Z,1.80
2022-12-26T06:51:14.257Z,2.13
2022-12-26T06:53:42.884Z,2.50
2022-12-26T06:56:14.623Z,2.80
2022-12-26T06:58:43.349Z,2.60
2022-12-26T07:01:13.455Z,2.10
2022-12-26T07:03:46.769Z,3.20
2022-12-26T07:06:23.567Z,2.63
2022-12-26T07:08:51.862Z,2.33
2022-12-26T07:11:23.289Z,2.70
2022-12-26T07:13:51.577Z,2.10
2022-12-26T07:16:19.662Z,2.60
2022-12-26T07:18:47.760Z,2.50
2022-12-26T07:21:17.125Z,2.40
2022-12-26T07:23:45.260Z,1.97
2022-12-26T07:26:13.247Z,2.20
2022-12-26T07:28:42.600Z,2.40
2022-12-26T07:31:10.650Z,2.07
2022-12-26T07:33:38.904Z,2.30
2022-12-26T07:36:08.155Z,3.40
2022-12-26T07:38:36.164Z,1.93
2022-12-26T07:41:24.350Z,2.40
2022-12-26T07:43:53.797Z,2.43
2022-12-26T07:46:22.169Z,2.00
2022-12-26T07:48:50.177Z,2.47
2022-12-26T07:51:18.219Z,2.20
2022-12-26T07:53:46.165Z,1.70
2022-12-26T07:56:14.105Z,2.40
2022-12-26T07:58:42.167Z,2.60
2022-12-26T08:01:11.613Z,2.10
2022-12-26T08:03:39.874Z,2.10
2022-12-26T08:06:10.345Z,1.83
2022-12-26T08:08:38.387Z,2.00
2022-12-26T08:11:08.115Z,2.20
2022-12-26T08:13:36.739Z,2.63
2022-12-26T08:16:07.351Z,2.20
2022-12-26T08:18:36.998Z,2.50
2022-12-26T08:21:05.252Z,2.70
2022-12-26T08:23:34.334Z,2.80
2022-12-26T08:26:06.758Z,2.93
2022-12-26T08:28:34.999Z,1.90
2022-12-26T08:31:07.185Z,2.83
2022-12-26T08:33:37.049Z,2.70
2022-12-26T08:36:05.741Z,2.80
2022-12-26T08:38:34.331Z,2.50
2022-12-26T08:41:02.557Z,2.00
2022-12-26T08:44:25.336Z,2.10
2022-12-26T08:46:20.771Z,2.30
2022-12-26T08:48:51.956Z,2.50
2022-12-26T08:51:21.969Z,2.10
2022-12-26T08:53:51.280Z,1.87
2022-12-26T08:56:21.227Z,2.00
2022-12-26T08:58:49.441Z,2.27
2022-12-26T09:01:19.460Z,2.40
2022-12-26T09:03:53.494Z,2.10
2022-12-26T09:06:22.285Z,2.10
2022-12-26T09:08:50.598Z,2.80
2022-12-26T09:11:20.792Z,2.30
2022-12-26T09:13:49.632Z,3.20
2022-12-26T09:16:20.266Z,2.67
2022-12-26T09:18:53.966Z,2.40
2022-12-26T09:21:22.127Z,2.03
2022-12-26T09:23:50.629Z,2.83
2022-12-26T09:26:21.672Z,2.07
2022-12-26T09:28:49.948Z,2.67
2022-12-26T09:31:20.228Z,3.07
2022-12-26T09:33:50.456Z,3.10
2022-12-26T09:36:21.140Z,2.40
2022-12-26T09:38:50.628Z,2.90
2022-12-26T09:41:44.445Z,2.70
2022-12-26T09:44:18.488Z,2.10
2022-12-26T09:46:56.905Z,2.50
2022-12-26T09:49:32.449Z,2.50
2022-12-26T09:52:03.111Z,2.33
2022-12-26T09:54:35.232Z,2.30
2022-12-26T09:57:14.847Z,3.27
2022-12-26T09:59:48.661Z,2.33
2022-12-26T10:02:19.745Z,2.33
2022-12-26T10:04:50.292Z,2.50
2022-12-26T10:07:24.406Z,2.20
2022-12-26T10:09:59.237Z,2.30
2022-12-26T10:12:43.508Z,2.40
2022-12-26T10:15:32.561Z,2.73
2022-12-26T10:18:09.122Z,2.27
2022-12-26T10:20:48.106Z,2.63
2022-12-26T10:23:33.603Z,2.50
2022-12-26T10:26:09.831Z,4.03
2022-12-26T10:28:43.051Z,3.63
2022-12-26T10:31:19.816Z,3.17
2022-12-26T10:33:53.892Z,2.17
2022-12-26T10:36:32.447Z,3.00
2022-12-26T10:39:03.233Z,3.30
2022-12-26T10:41:37.084Z,2.80
2022-12-26T10:44:05.233Z,3.30
2022-12-26T10:47:12.721Z,3.07
2022-12-26T10:49:41.474Z,3.10
2022-12-26T10:52:13.335Z,3.00
2022-12-26T10:54:42.201Z,2.70
2022-12-26T10:57:11.339Z,3.30
2022-12-26T10:59:46.035Z,2.90
2022-12-26T11:02:26.396Z,3.43
2022-12-26T11:05:15.931Z,4.10
2022-12-26T11:08:07.480Z,4.10
2022-12-26T11:10:35.614Z,3.13
2022-12-26T11:13:07.563Z,3.00
2022-12-26T11:15:39.766Z,3.03
2022-12-26T11:18:37.146Z,3.00
2022-12-26T11:21:21.122Z,3.20
2022-12-26T11:23:52.359Z,2.43
2022-12-26T11:26:23.890Z,2.17
2022-12-26T11:29:08.166Z,3.17
2022-12-26T11:31:38.199Z,2.50
2022-12-26T11:34:10.388Z,2.23
2022-12-26T11:36:41.462Z,2.50
2022-12-26T11:39:24.415Z,2.57
2022-12-26T11:41:53.254Z,2.57
2022-12-26T11:44:26.133Z,1.80
2022-12-26T11:46:58.637Z,2.03
2022-12-26T11:49:32.144Z,2.87
2022-12-26T11:52:01.887Z,2.63
2022-12-26T11:54:36.972Z,1.93
2022-12-26T11:57:14.173Z,2.27
2022-12-26T11:59:42.509Z,2.07
2022-12-26T12:02:28.379Z,1.97
2022-12-26T12:05:01.202Z,2.17
2022-12-26T12:07:51.982Z,2.20
2022-12-26T12:10:56.086Z,2.37
2022-12-26T12:13:37.910Z,2.40
2022-12-26T12:16:14.956Z,2.00
2022-12-26T12:18:53.035Z,1.90
2022-12-26T12:21:29.583Z,1.87
2022-12-26T12:24:21.991Z,2.10
2022-12-26T12:27:04.586Z,2.33
2022-12-26T12:30:00.307Z,1.80
2022-12-26T12:32:37.712Z,1.50
2022-12-26T12:35:22.081Z,1.80
2022-12-26T12:38:06.467Z,1.47
2022-12-26T12:40:42.215Z,1.60
2022-12-26T12:43:18.086Z,1.60
2022-12-26T12:45:55.894Z,1.17
2022-12-26T12:48:37.235Z,2.10
2022-12-26T12:51:15.548Z,1.70
2022-12-26T12:54:12.759Z,1.43
2022-12-26T12:56:48.445Z,1.40
2022-12-26T12:59:29.911Z,1.67
2022-12-26T13:02:08.997Z,1.40
2022-12-26T13:04:42.986Z,1.30
2022-12-26T13:07:15.109Z,1.20
2022-12-26T13:09:47.345Z,1.20
2022-12-26T13:12:20.298Z,1.03
2022-12-26T13:14:53.094Z,1.10
2022-12-26T13:17:26.090Z,1.47
2022-12-26T13:20:02.456Z,1.00
2022-12-26T13:22:54.811Z,1.30
2022-12-26T13:25:24.807Z,2.10
2022-12-26T13:28:09.678Z,1.50
2022-12-26T13:30:40.648Z,1.30
2022-12-26T13:33:14.408Z,1.43
2022-12-26T13:35:54.436Z,1.00
2022-12-26T13:38:23.517Z,1.50
2022-12-26T13:40:57.052Z,1.50
2022-12-26T13:43:43.678Z,1.43
2022-12-26T13:46:38.529Z,1.83
2022-12-26T13:49:26.629Z,1.60
2022-12-26T13:51:58.966Z,1.30
2022-12-26T13:54:29.049Z,1.50
2022-12-26T13:57:33.544Z,1.30
2022-12-26T14:00:24.233Z,1.03
2022-12-26T14:03:33.341Z,1.33
2022-12-26T14:06:26.131Z,1.20
2022-12-26T14:09:17.775Z,1.60
2022-12-26T14:12:04.432Z,1.20
2022-12-26T14:14:52.388Z,1.40
2022-12-26T14:17:34.349Z,1.53
2022-12-26T14:20:13.499Z,1.43
2022-12-26T14:22:49.407Z,1.50
2022-12-26T14:25:25.310Z,1.20
2022-12-26T14:27:58.570Z,1.10
2022-12-26T14:30:35.587Z,1.40
2022-12-26T14:33:26.052Z,1.13
2022-12-26T14:36:19.912Z,1.10
2022-12-26T14:38:56.365Z,1.63
2022-12-26T14:41:42.756Z,1.87
2022-12-26T14:44:16.740Z,1.37
2022-12-26T14:47:00.783Z,1.20
2022-12-26T14:49:40.220Z,1.63
2022-12-26T14:52:41.369Z,1.40
2022-12-26T14:55:46.592Z,1.87
2022-12-26T14:58:27.373Z,2.23
2022-12-26T15:00:57.111Z,2.30
2022-12-26T15:03:44.777Z,1.67
2022-12-26T15:06:52.450Z,1.57
2022-12-26T15:09:56.155Z,1.53
2022-12-26T15:12:59.549Z,1.13
2022-12-26T15:15:35.162Z,1.10
2022-12-26T15:18:43.288Z,1.47
2022-12-26T15:21:34.506Z,2.27
2022-12-26T15:27:58.412Z,1.50
2022-12-26T15:30:42.911Z,1.00
2022-12-26T15:33:20.195Z,1.63
2022-12-26T15:35:52.108Z,1.30
2022-12-26T15:38:30.219Z,1.73
2022-12-26T15:41:14.627Z,1.40
2022-12-26T15:44:07.964Z,1.77
2022-12-26T15:46:40.307Z,1.40
2022-12-26T15:49:41.698Z,1.50
2022-12-26T15:52:19.642Z,1.73
2022-12-26T15:55:19.506Z,1.73
2022-12-26T15:57:58.606Z,1.70
2022-12-26T16:00:28.098Z,1.87
2022-12-26T16:03:14.564Z,1.77
2022-12-26T16:05:52.475Z,1.73
2022-12-26T16:08:39.246Z,1.40
2022-12-26T16:11:15.703Z,2.00
2022-12-26T16:13:55.244Z,2.23
2022-12-26T16:16:32.149Z,1.47
2022-12-26T16:19:15.984Z,1.43
2022-12-26T16:22:04.924Z,1.90
2022-12-26T16:24:34.629Z,1.67
2022-12-26T16:27:06.181Z,1.60
2022-12-26T16:29:44.753Z,1.40
2022-12-26T16:32:17.988Z,1.93
2022-12-26T16:34:47.026Z,1.70
2022-12-26T16:37:20.155Z,2.17
2022-12-26T16:40:06.793Z,2.10
2022-12-26T16:42:35.179Z,1.53
2022-12-26T16:45:05.621Z,2.17
2022-12-26T16:47:34.592Z,1.87
2022-12-26T16:50:06.106Z,1.57
2022-12-26T16:52:42.123Z,2.07
2022-12-26T16:55:35.946Z,1.70
2022-12-26T16:58:13.589Z,2.57
2022-12-26T17:00:48.126Z,1.93
2022-12-26T17:03:28.153Z,2.30
2022-12-26T17:05:57.288Z,1.80
2022-12-26T17:08:26.075Z,1.80
2022-12-26T17:10:54.300Z,1.90
2022-12-26T17:13:26.489Z,2.10
2022-12-26T17:15:58.706Z,2.33
2022-12-26T17:18:43.564Z,2.30
2022-12-26T17:21:29.274Z,1.50
2022-12-26T17:24:21.161Z,1.60
2022-12-26T17:26:54.644Z,1.93
2022-12-26T17:29:56.709Z,1.80
2022-12-26T17:32:34.310Z,1.50
2022-12-26T17:35:08.393Z,3.13
2022-12-26T17:37:36.683Z,2.10
2022-12-26T17:40:20.215Z,1.50
2022-12-26T17:42:50.823Z,1.30
2022-12-26T17:45:20.715Z,1.70
2022-12-26T17:47:52.423Z,1.40
2022-12-26T17:50:20.730Z,1.47
2022-12-26T17:52:48.942Z,1.73
2022-12-26T17:55:19.824Z,2.20
2022-12-26T17:57:47.917Z,2.43
2022-12-26T18:00:18.274Z,2.10
2022-12-26T18:02:46.293Z,1.60
2022-12-26T18:05:16.197Z,1.60
2022-12-26T18:07:44.868Z,1.67
2022-12-26T18:10:18.955Z,1.60
2022-12-26T18:12:47.425Z,1.43
2022-12-26T18:15:15.796Z,1.83
2022-12-26T18:17:44.187Z,1.80
2022-12-26T18:20:22.011Z,1.80
2022-12-26T18:22:51.646Z,1.60
2022-12-26T18:25:24.152Z,2.30
2022-12-26T18:27:52.878Z,1.20
2022-12-26T18:30:22.790Z,1.70
2022-12-26T18:32:52.921Z,1.10
2022-12-26T18:35:22.404Z,1.30
2022-12-26T18:37:53.289Z,1.57
2022-12-26T18:40:29.796Z,1.40
2022-12-26T18:42:57.827Z,1.30
2022-12-26T18:45:28.484Z,1.50
2022-12-26T18:47:56.997Z,1.20
2022-12-26T18:50:27.870Z,1.30
2022-12-26T18:52:56.447Z,1.40
2022-12-26T18:55:25.644Z,1.30
2022-12-26T18:57:54.531Z,1.63
2022-12-26T19:00:23.736Z,1.50
2022-12-26T19:02:52.670Z,1.70
2022-12-26T19:05:22.953Z,1.10
2022-12-26T19:07:52.280Z,1.40
2022-12-26T19:10:24.410Z,1.60
2022-12-26T19:12:52.589Z,1.73
2022-12-26T19:15:20.979Z,0.90
2022-12-26T19:17:53.433Z,1.00
2022-12-26T19:20:23.362Z,1.03
2022-12-26T19:22:54.514Z,1.17
2022-12-26T19:25:24.669Z,0.90
2022-12-26T19:27:53.202Z,0.90
2022-12-26T19:30:22.309Z,0.90
2022-12-26T19:32:50.907Z,1.30
2022-12-26T19:35:19.408Z,0.90
2022-12-26T19:37:47.354Z,0.90
2022-12-26T19:40:22.960Z,0.90
2022-12-26T19:42:52.679Z,1.00
2022-12-26T19:45:20.701Z,1.00
2022-12-26T19:47:48.650Z,0.80
2022-12-26T19:50:16.537Z,0.80
2022-12-26T19:52:44.462Z,0.80
2022-12-26T19:55:13.030Z,1.20
2022-12-26T19:57:42.365Z,0.73
2022-12-26T20:00:12.138Z,2.40
2022-12-26T20:02:40.537Z,1.33
2022-12-26T20:05:09.648Z,1.63
2022-12-26T20:07:37.605Z,1.10
2022-12-26T20:10:06.740Z,1.20
2022-12-26T20:12:34.841Z,1.00
2022-12-26T20:15:04.491Z,1.10
2022-12-26T20:17:32.573Z,0.97
2022-12-26T20:20:00.522Z,0.93
2022-12-26T20:22:29.363Z,1.50
2022-12-26T20:24:57.307Z,1.53
2022-12-26T20:27:25.594Z,0.87
2022-12-26T20:29:53.525Z,1.20
2022-12-26T20:32:22.877Z,1.03
2022-12-26T20:34:50.820Z,0.90
2022-12-26T20:37:18.892Z,1.17
2022-12-26T20:39:46.877Z,1.00
2022-12-26T20:42:16.419Z,1.40
2022-12-26T20:44:44.525Z,1.37
2022-12-26T20:47:12.763Z,1.20
2022-12-26T20:49:42.025Z,1.60
2022-12-26T20:52:10.030Z,1.30
2022-12-26T20:54:37.952Z,1.63
2022-12-26T20:57:06.003Z,1.40
2022-12-26T20:59:33.980Z,1.80
2022-12-26T21:02:02.279Z,1.37
2022-12-26T21:04:30.361Z,1.60
2022-12-26T21:07:00.042Z,2.20
2022-12-26T21:09:27.974Z,1.63
2022-12-26T21:11:55.895Z,1.30
2022-12-26T21:14:24.641Z,1.33
2022-12-26T21:16:54.604Z,1.10
2022-12-26T21:19:23.916Z,1.47
2022-12-26T21:21:54.227Z,1.37
2022-12-26T21:24:26.004Z,1.60
2022-12-26T21:26:54.074Z,1.57
2022-12-26T21:29:24.932Z,1.40
2022-12-26T21:31:53.991Z,1.10
2022-12-26T21:34:24.996Z,1.37
2022-12-26T21:37:10.682Z,1.07
2022-12-26T21:39:40.313Z,1.00
2022-12-26T21:42:09.520Z,0.80
2022-12-26T21:44:37.844Z,0.70
2022-12-26T21:47:07.943Z,0.80
2022-12-26T21:49:36.141Z,1.00
2022-12-26T21:52:04.341Z,0.73
2022-12-26T21:54:49.901Z,1.60
2022-12-26T21:57:20.067Z,0.70
2022-12-26T22:00:00.728Z,0.87
2022-12-26T22:02:48.523Z,1.27
2022-12-26T22:05:17.461Z,0.93
2022-12-26T22:07:45.494Z,1.00
2022-12-26T22:10:34.498Z,0.70
2022-12-26T22:13:03.683Z,0.80
2022-12-26T22:15:49.348Z,1.00
2022-12-26T22:18:17.439Z,0.93
2022-12-26T22:20:46.163Z,1.23
2022-12-26T22:23:14.591Z,0.90
2022-12-26T22:25:42.654Z,1.00
2022-12-26T22:28:11.968Z,1.10
2022-12-26T22:30:39.871Z,1.30
2022-12-26T22:33:07.880Z,0.70
2022-12-26T22:35:35.797Z,1.53
2022-12-26T22:38:03.758Z,1.03
2022-12-26T22:40:31.711Z,0.93
2022-12-26T22:42:59.789Z,1.10
2022-12-26T22:45:29.305Z,0.90
2022-12-26T22:47:57.275Z,0.90
2022-12-26T22:50:25.330Z,0.70
2022-12-26T22:52:53.278Z,0.77
2022-12-26T22:55:21.226Z,0.93
2022-12-26T22:57:52.522Z,1.00
2022-12-26T23:00:21.081Z,0.80
2022-12-26T23:02:50.622Z,0.80
2022-12-26T23:05:19.270Z,0.70
2022-12-26T23:07:48.219Z,0.70
2022-12-26T23:10:22.169Z,0.60
2022-12-26T23:12:55.768Z,0.60
2022-12-26T23:15:29.177Z,0.60
2022-12-26T23:18:24.982Z,0.70
2022-12-26T23:21:12.089Z,0.60
2022-12-26T23:23:40.510Z,0.80
2022-12-26T23:26:08.618Z,1.00
2022-12-26T23:28:54.195Z,0.80
2022-12-26T23:31:22.307Z,0.80
2022-12-26T23:33:51.668Z,0.77
2022-12-26T23:36:19.531Z,1.00
2022-12-26T23:38:52.176Z,0.70
2022-12-26T23:41:20.169Z,0.73
2022-12-26T23:43:48.512Z,0.60
2022-12-26T23:46:17.511Z,0.77
2022-12-26T23:48:48.603Z,1.07
2022-12-26T23:51:18.198Z,0.60
2022-12-26T23:53:51.723Z,0.73
2022-12-26T23:56:23.097Z,0.70
2022-12-26T23:58:51.007Z,0.60
